首页
METAR-TAF:

METAR-TAF

机场 :

West Memphis, 阿肯色州, 美国

纬度: 35-08N, 经度: 090-14W, 海拔: 65米

当前天气观测

该预报发布于50分钟前的06:53 UTC
风速6节,风向东转东北
温度 11°C
湿度 100%
气压 1015 hPa
能見度: 4.8公里
阴天层高于3900英尺
雨, 轻雾

METAR: KAWM 310653Z AUTO 06006KT 3SM RA BR OVC039 11/11 A2998 RMK AO2 SLP151 P0032 T01110111 $

时间: 02:43 (07:43 UTC)


TAF: 丢失

超过4000个机场的气象观测和天气预报(METAR&TAF报告)。

可查询的气象台以黄色和红色小点在地图上表示。

将鼠标移到小点上方,可查看气象台名称。

然后点击查看天气观测和预报。

如需切换地图:点击带黑十字的绿色按钮放大地图;点击带横线的绿色按钮缩小地图;或者点击绿色箭头查看邻近地区的地图。


METAR-TAF: